sensor_id;sensor_type;location;lat;lon;timestamp;temperature;humidity
45685;DHT22;46836;48.388;16.210;2023-02-28T00:01:32;1.50;99.90
45685;DHT22;46836;48.388;16.210;2023-02-28T00:03:59;1.40;99.90
45685;DHT22;46836;48.388;16.210;2023-02-28T00:06:27;1.40;99.90
45685;DHT22;46836;48.388;16.210;2023-02-28T00:08:54;1.40;99.90
45685;DHT22;46836;48.388;16.210;2023-02-28T00:11:21;1.40;99.90
45685;DHT22;46836;48.388;16.210;2023-02-28T00:13:49;1.30;99.90
45685;DHT22;46836;48.388;16.210;2023-02-28T00:16:21;1.30;99.90
45685;DHT22;46836;48.388;16.210;2023-02-28T00:18:49;1.20;99.90
45685;DHT22;46836;48.388;16.210;2023-02-28T00:21:18;1.20;99.90
45685;DHT22;46836;48.388;16.210;2023-02-28T00:23:45;1.10;99.90
45685;DHT22;46836;48.388;16.210;2023-02-28T00:26:13;1.10;99.90
45685;DHT22;46836;48.388;16.210;2023-02-28T00:28:41;1.10;99.90
45685;DHT22;46836;48.388;16.210;2023-02-28T00:31:08;1.00;99.90
45685;DHT22;46836;48.388;16.210;2023-02-28T00:33:35;1.00;99.90
45685;DHT22;46836;48.388;16.210;2023-02-28T00:36:05;1.00;99.90
45685;DHT22;46836;48.388;16.210;2023-02-28T00:38:32;1.00;99.90
45685;DHT22;46836;48.388;16.210;2023-02-28T00:40:59;1.00;99.90
45685;DHT22;46836;48.388;16.210;2023-02-28T00:43:33;1.00;99.90
45685;DHT22;46836;48.388;16.210;2023-02-28T00:46:01;1.00;99.90
45685;DHT22;46836;48.388;16.210;2023-02-28T00:48:28;1.00;99.90
45685;DHT22;46836;48.388;16.210;2023-02-28T00:50:55;1.00;99.90
45685;DHT22;46836;48.388;16.210;2023-02-28T00:53:22;1.00;99.90
45685;DHT22;46836;48.388;16.210;2023-02-28T00:55:50;1.00;99.90
45685;DHT22;46836;48.388;16.210;2023-02-28T00:58:17;0.90;99.90
45685;DHT22;46836;48.388;16.210;2023-02-28T01:00:45;0.90;99.90
45685;DHT22;46836;48.388;16.210;2023-02-28T01:03:17;0.90;99.90
45685;DHT22;46836;48.388;16.210;2023-02-28T01:05:45;0.80;99.90
45685;DHT22;46836;48.388;16.210;2023-02-28T01:08:13;0.80;99.90
45685;DHT22;46836;48.388;16.210;2023-02-28T01:10:41;0.80;99.90
45685;DHT22;46836;48.388;16.210;2023-02-28T01:13:08;0.70;99.90
45685;DHT22;46836;48.388;16.210;2023-02-28T01:15:35;0.70;99.90
45685;DHT22;46836;48.388;16.210;2023-02-28T01:18:02;0.70;99.90
45685;DHT22;46836;48.388;16.210;2023-02-28T01:20:29;0.60;99.90
45685;DHT22;46836;48.388;16.210;2023-02-28T01:22:57;0.60;99.90
45685;DHT22;46836;48.388;16.210;2023-02-28T01:25:24;0.60;99.90
45685;DHT22;46836;48.388;16.210;2023-02-28T01:27:51;0.50;99.90
45685;DHT22;46836;48.388;16.210;2023-02-28T01:30:19;0.60;99.90
45685;DHT22;46836;48.388;16.210;2023-02-28T01:32:46;0.60;99.90
45685;DHT22;46836;48.388;16.210;2023-02-28T01:35:13;0.60;99.90
45685;DHT22;46836;48.388;16.210;2023-02-28T01:37:40;0.60;99.90
45685;DHT22;46836;48.388;16.210;2023-02-28T01:40:08;0.50;99.90
45685;DHT22;46836;48.388;16.210;2023-02-28T01:42:35;0.50;99.90
45685;DHT22;46836;48.388;16.210;2023-02-28T01:45:22;0.50;99.90
45685;DHT22;46836;48.388;16.210;2023-02-28T01:47:54;0.50;99.90
45685;DHT22;46836;48.388;16.210;2023-02-28T01:50:26;0.60;99.90
45685;DHT22;46836;48.388;16.210;2023-02-28T01:52:56;0.50;99.90
45685;DHT22;46836;48.388;16.210;2023-02-28T01:55:24;0.60;99.90
45685;DHT22;46836;48.388;16.210;2023-02-28T01:57:59;0.60;99.90
45685;DHT22;46836;48.388;16.210;2023-02-28T02:00:27;0.60;99.90
45685;DHT22;46836;48.388;16.210;2023-02-28T02:02:59;0.60;99.90
45685;DHT22;46836;48.388;16.210;2023-02-28T02:05:29;0.60;99.90
45685;DHT22;46836;48.388;16.210;2023-02-28T02:08:12;0.50;99.90
45685;DHT22;46836;48.388;16.210;2023-02-28T02:10:44;0.50;99.90
45685;DHT22;46836;48.388;16.210;2023-02-28T02:18:50;0.50;99.90
45685;DHT22;46836;48.388;16.210;2023-02-28T02:21:42;0.50;99.90
45685;DHT22;46836;48.388;16.210;2023-02-28T02:26:50;0.50;99.90
45685;DHT22;46836;48.388;16.210;2023-02-28T02:40:20;0.50;99.90
45685;DHT22;46836;48.388;16.210;2023-02-28T02:42:55;0.50;99.90
45685;DHT22;46836;48.388;16.210;2023-02-28T02:45:50;0.50;99.90
45685;DHT22;46836;48.388;16.210;2023-02-28T02:48:20;0.60;99.90
45685;DHT22;46836;48.388;16.210;2023-02-28T02:50:55;0.60;99.90
45685;DHT22;46836;48.388;16.210;2023-02-28T02:53:35;0.70;99.90
45685;DHT22;46836;48.388;16.210;2023-02-28T02:56:04;0.70;99.90
45685;DHT22;46836;48.388;16.210;2023-02-28T02:58:37;0.70;99.90
45685;DHT22;46836;48.388;16.210;2023-02-28T03:01:13;0.80;99.90
45685;DHT22;46836;48.388;16.210;2023-02-28T03:03:41;0.80;99.90
45685;DHT22;46836;48.388;16.210;2023-02-28T03:06:09;0.80;99.90
45685;DHT22;46836;48.388;16.210;2023-02-28T03:08:38;0.80;99.90
45685;DHT22;46836;48.388;16.210;2023-02-28T03:11:09;0.90;99.90
45685;DHT22;46836;48.388;16.210;2023-02-28T03:20:07;1.00;99.90
45685;DHT22;46836;48.388;16.210;2023-02-28T03:24:46;1.00;99.90
45685;DHT22;46836;48.388;16.210;2023-02-28T03:30:39;1.10;99.90
45685;DHT22;46836;48.388;16.210;2023-02-28T03:33:21;1.10;99.90
45685;DHT22;46836;48.388;16.210;2023-02-28T03:35:59;1.10;99.90
45685;DHT22;46836;48.388;16.210;2023-02-28T03:39:21;1.10;99.90
45685;DHT22;46836;48.388;16.210;2023-02-28T03:42:29;1.10;99.90
45685;DHT22;46836;48.388;16.210;2023-02-28T03:45:04;1.10;99.90
45685;DHT22;46836;48.388;16.210;2023-02-28T03:47:58;1.10;99.90
45685;DHT22;46836;48.388;16.210;2023-02-28T03:50:40;1.10;99.90
45685;DHT22;46836;48.388;16.210;2023-02-28T03:53:18;1.00;99.90
45685;DHT22;46836;48.388;16.210;2023-02-28T03:55:49;0.90;99.90
45685;DHT22;46836;48.388;16.210;2023-02-28T04:00:47;0.90;99.90
45685;DHT22;46836;48.388;16.210;2023-02-28T04:03:16;0.90;99.90
45685;DHT22;46836;48.388;16.210;2023-02-28T04:05:52;0.80;99.90
45685;DHT22;46836;48.388;16.210;2023-02-28T04:08:20;0.80;99.90
45685;DHT22;46836;48.388;16.210;2023-02-28T04:10:59;0.80;99.90
45685;DHT22;46836;48.388;16.210;2023-02-28T04:13:28;0.80;99.90
45685;DHT22;46836;48.388;16.210;2023-02-28T04:15:55;0.80;99.90
45685;DHT22;46836;48.388;16.210;2023-02-28T04:18:22;0.70;99.90
45685;DHT22;46836;48.388;16.210;2023-02-28T04:20:49;0.70;99.90
45685;DHT22;46836;48.388;16.210;2023-02-28T04:23:16;0.70;99.90
45685;DHT22;46836;48.388;16.210;2023-02-28T04:25:43;0.60;99.90
45685;DHT22;46836;48.388;16.210;2023-02-28T04:28:10;0.60;99.90
45685;DHT22;46836;48.388;16.210;2023-02-28T04:30:37;0.60;99.90
45685;DHT22;46836;48.388;16.210;2023-02-28T04:33:05;0.60;99.90
45685;DHT22;46836;48.388;16.210;2023-02-28T04:35:33;0.50;99.90
45685;DHT22;46836;48.388;16.210;2023-02-28T04:38:00;0.50;99.90
45685;DHT22;46836;48.388;16.210;2023-02-28T04:40:27;0.50;99.90
45685;DHT22;46836;48.388;16.210;2023-02-28T04:42:54;0.50;99.90
45685;DHT22;46836;48.388;16.210;2023-02-28T04:45:21;0.40;99.90
45685;DHT22;46836;48.388;16.210;2023-02-28T04:47:48;0.40;99.90
45685;DHT22;46836;48.388;16.210;2023-02-28T04:50:15;0.40;99.90
45685;DHT22;46836;48.388;16.210;2023-02-28T04:52:42;0.40;99.90
45685;DHT22;46836;48.388;16.210;2023-02-28T04:55:10;0.40;99.90
45685;DHT22;46836;48.388;16.210;2023-02-28T04:57:37;0.30;99.90
45685;DHT22;46836;48.388;16.210;2023-02-28T05:00:04;0.40;99.90
45685;DHT22;46836;48.388;16.210;2023-02-28T05:02:34;0.40;99.90
45685;DHT22;46836;48.388;16.210;2023-02-28T05:05:02;0.40;99.90
45685;DHT22;46836;48.388;16.210;2023-02-28T05:07:29;0.40;99.90
45685;DHT22;46836;48.388;16.210;2023-02-28T05:09:56;0.40;99.90
45685;DHT22;46836;48.388;16.210;2023-02-28T05:12:23;0.50;99.90
45685;DHT22;46836;48.388;16.210;2023-02-28T05:14:50;0.50;99.90
45685;DHT22;46836;48.388;16.210;2023-02-28T05:17:17;0.40;99.90
45685;DHT22;46836;48.388;16.210;2023-02-28T05:19:44;0.40;99.90
45685;DHT22;46836;48.388;16.210;2023-02-28T05:22:15;0.30;99.90
45685;DHT22;46836;48.388;16.210;2023-02-28T05:24:45;0.30;99.90
45685;DHT22;46836;48.388;16.210;2023-02-28T05:27:12;0.20;99.90
45685;DHT22;46836;48.388;16.210;2023-02-28T05:29:39;0.20;99.90
45685;DHT22;46836;48.388;16.210;2023-02-28T05:32:10;0.20;99.90
45685;DHT22;46836;48.388;16.210;2023-02-28T05:34:39;0.10;99.90
45685;DHT22;46836;48.388;16.210;2023-02-28T05:37:11;0.10;99.90
45685;DHT22;46836;48.388;16.210;2023-02-28T05:39:39;0.00;99.90
45685;DHT22;46836;48.388;16.210;2023-02-28T05:42:06;0.00;99.90
45685;DHT22;46836;48.388;16.210;2023-02-28T05:44:33;0.00;99.90
45685;DHT22;46836;48.388;16.210;2023-02-28T05:47:00;0.00;99.90
45685;DHT22;46836;48.388;16.210;2023-02-28T05:49:28;-0.10;99.90
45685;DHT22;46836;48.388;16.210;2023-02-28T05:51:55;-0.10;99.90
45685;DHT22;46836;48.388;16.210;2023-02-28T05:54:22;-0.10;99.90
45685;DHT22;46836;48.388;16.210;2023-02-28T05:56:49;-0.10;99.90
45685;DHT22;46836;48.388;16.210;2023-02-28T05:59:16;-0.10;99.90
45685;DHT22;46836;48.388;16.210;2023-02-28T06:01:46;-0.10;99.90
45685;DHT22;46836;48.388;16.210;2023-02-28T06:04:18;-0.10;99.90
45685;DHT22;46836;48.388;16.210;2023-02-28T06:06:57;-0.10;99.90
45685;DHT22;46836;48.388;16.210;2023-02-28T06:09:24;-0.10;99.90
45685;DHT22;46836;48.388;16.210;2023-02-28T06:11:52;-0.10;99.90
45685;DHT22;46836;48.388;16.210;2023-02-28T06:14:19;-0.10;99.90
45685;DHT22;46836;48.388;16.210;2023-02-28T06:16:47;-0.10;99.90
45685;DHT22;46836;48.388;16.210;2023-02-28T06:19:14;-0.10;99.90
45685;DHT22;46836;48.388;16.210;2023-02-28T06:21:42;-0.10;99.90
45685;DHT22;46836;48.388;16.210;2023-02-28T06:24:09;-0.10;99.90
45685;DHT22;46836;48.388;16.210;2023-02-28T06:26:36;-0.10;99.90
45685;DHT22;46836;48.388;16.210;2023-02-28T06:29:03;-0.10;99.90
45685;DHT22;46836;48.388;16.210;2023-02-28T06:31:30;0.00;99.90
45685;DHT22;46836;48.388;16.210;2023-02-28T06:33:58;0.00;99.90
45685;DHT22;46836;48.388;16.210;2023-02-28T06:36:25;0.00;99.90
45685;DHT22;46836;48.388;16.210;2023-02-28T06:38:52;0.10;99.90
45685;DHT22;46836;48.388;16.210;2023-02-28T06:41:26;0.10;99.90
45685;DHT22;46836;48.388;16.210;2023-02-28T06:43:54;0.10;99.90
45685;DHT22;46836;48.388;16.210;2023-02-28T06:46:22;0.10;99.90
45685;DHT22;46836;48.388;16.210;2023-02-28T06:48:49;0.20;99.90
45685;DHT22;46836;48.388;16.210;2023-02-28T06:51:19;0.20;99.90
45685;DHT22;46836;48.388;16.210;2023-02-28T06:53:51;0.20;99.90
45685;DHT22;46836;48.388;16.210;2023-02-28T06:56:18;0.20;99.90
45685;DHT22;46836;48.388;16.210;2023-02-28T06:58:48;0.20;99.90
45685;DHT22;46836;48.388;16.210;2023-02-28T07:01:16;0.20;99.90
45685;DHT22;46836;48.388;16.210;2023-02-28T07:03:43;0.20;99.90
45685;DHT22;46836;48.388;16.210;2023-02-28T07:06:10;0.30;99.90
45685;DHT22;46836;48.388;16.210;2023-02-28T07:08:38;0.30;99.90
45685;DHT22;46836;48.388;16.210;2023-02-28T07:11:06;0.30;99.90
45685;DHT22;46836;48.388;16.210;2023-02-28T07:13:33;0.40;99.90
45685;DHT22;46836;48.388;16.210;2023-02-28T07:16:06;0.40;99.90
45685;DHT22;46836;48.388;16.210;2023-02-28T07:18:34;0.50;99.90
45685;DHT22;46836;48.388;16.210;2023-02-28T07:21:03;0.50;99.90
45685;DHT22;46836;48.388;16.210;2023-02-28T07:23:30;0.50;99.90
45685;DHT22;46836;48.388;16.210;2023-02-28T07:25:57;0.50;99.90
45685;DHT22;46836;48.388;16.210;2023-02-28T07:28:25;0.50;99.90
45685;DHT22;46836;48.388;16.210;2023-02-28T07:30:52;0.50;99.90
45685;DHT22;46836;48.388;16.210;2023-02-28T07:33:19;0.50;99.90
45685;DHT22;46836;48.388;16.210;2023-02-28T07:35:46;0.60;99.90
45685;DHT22;46836;48.388;16.210;2023-02-28T07:38:13;0.60;99.90
45685;DHT22;46836;48.388;16.210;2023-02-28T07:40:40;0.60;99.90
45685;DHT22;46836;48.388;16.210;2023-02-28T07:43:07;0.70;99.90
45685;DHT22;46836;48.388;16.210;2023-02-28T07:45:34;0.70;99.90
45685;DHT22;46836;48.388;16.210;2023-02-28T07:48:01;0.70;99.90
45685;DHT22;46836;48.388;16.210;2023-02-28T07:50:28;0.70;99.90
45685;DHT22;46836;48.388;16.210;2023-02-28T07:53:00;0.70;99.90
45685;DHT22;46836;48.388;16.210;2023-02-28T07:55:27;0.70;99.90
45685;DHT22;46836;48.388;16.210;2023-02-28T07:57:54;0.80;99.90
45685;DHT22;46836;48.388;16.210;2023-02-28T08:00:23;0.80;99.90
45685;DHT22;46836;48.388;16.210;2023-02-28T08:02:50;0.90;99.90
45685;DHT22;46836;48.388;16.210;2023-02-28T08:05:17;0.90;99.90
45685;DHT22;46836;48.388;16.210;2023-02-28T08:07:49;1.00;99.90
45685;DHT22;46836;48.388;16.210;2023-02-28T08:10:16;1.10;99.90
45685;DHT22;46836;48.388;16.210;2023-02-28T08:12:43;1.20;99.90
45685;DHT22;46836;48.388;16.210;2023-02-28T08:15:10;1.20;99.90
45685;DHT22;46836;48.388;16.210;2023-02-28T08:17:37;1.30;99.90
45685;DHT22;46836;48.388;16.210;2023-02-28T08:20:05;1.40;99.90
45685;DHT22;46836;48.388;16.210;2023-02-28T08:22:32;1.50;99.90
45685;DHT22;46836;48.388;16.210;2023-02-28T08:24:59;1.60;99.90
45685;DHT22;46836;48.388;16.210;2023-02-28T08:27:26;1.70;99.90
45685;DHT22;46836;48.388;16.210;2023-02-28T08:29:54;1.70;99.90
45685;DHT22;46836;48.388;16.210;2023-02-28T08:32:21;1.90;99.90
45685;DHT22;46836;48.388;16.210;2023-02-28T08:34:56;2.00;99.90
45685;DHT22;46836;48.388;16.210;2023-02-28T08:37:23;2.10;99.90
45685;DHT22;46836;48.388;16.210;2023-02-28T08:39:51;2.20;99.90
45685;DHT22;46836;48.388;16.210;2023-02-28T08:42:22;2.30;99.90
45685;DHT22;46836;48.388;16.210;2023-02-28T08:44:49;2.30;99.90
45685;DHT22;46836;48.388;16.210;2023-02-28T08:47:16;2.40;99.90
45685;DHT22;46836;48.388;16.210;2023-02-28T08:49:43;2.40;99.90
45685;DHT22;46836;48.388;16.210;2023-02-28T08:52:10;2.40;99.90
45685;DHT22;46836;48.388;16.210;2023-02-28T08:54:37;2.30;99.90
45685;DHT22;46836;48.388;16.210;2023-02-28T08:57:04;2.40;99.90
45685;DHT22;46836;48.388;16.210;2023-02-28T08:59:31;2.50;99.90
45685;DHT22;46836;48.388;16.210;2023-02-28T09:01:59;2.60;99.90
45685;DHT22;46836;48.388;16.210;2023-02-28T09:04:26;2.80;99.90
45685;DHT22;46836;48.388;16.210;2023-02-28T09:06:53;2.90;99.90
45685;DHT22;46836;48.388;16.210;2023-02-28T09:09:20;3.00;99.90
45685;DHT22;46836;48.388;16.210;2023-02-28T09:11:47;3.20;99.90
45685;DHT22;46836;48.388;16.210;2023-02-28T09:14:14;3.30;99.90
45685;DHT22;46836;48.388;16.210;2023-02-28T09:16:41;3.50;99.90
45685;DHT22;46836;48.388;16.210;2023-02-28T09:19:11;3.60;99.90
45685;DHT22;46836;48.388;16.210;2023-02-28T09:21:38;3.90;99.90
45685;DHT22;46836;48.388;16.210;2023-02-28T09:24:06;4.10;99.90
45685;DHT22;46836;48.388;16.210;2023-02-28T09:26:34;4.30;99.90
45685;DHT22;46836;48.388;16.210;2023-02-28T09:29:17;4.40;99.90
45685;DHT22;46836;48.388;16.210;2023-02-28T09:31:44;4.50;99.90
45685;DHT22;46836;48.388;16.210;2023-02-28T09:34:12;4.50;99.90
45685;DHT22;46836;48.388;16.210;2023-02-28T09:36:39;4.60;99.90
45685;DHT22;46836;48.388;16.210;2023-02-28T09:39:12;4.70;99.90
45685;DHT22;46836;48.388;16.210;2023-02-28T09:41:44;4.60;99.90
45685;DHT22;46836;48.388;16.210;2023-02-28T09:44:31;4.50;99.90
45685;DHT22;46836;48.388;16.210;2023-02-28T09:47:11;4.40;99.90
45685;DHT22;46836;48.388;16.210;2023-02-28T09:49:46;4.30;99.90
45685;DHT22;46836;48.388;16.210;2023-02-28T09:52:21;4.20;99.90
45685;DHT22;46836;48.388;16.210;2023-02-28T09:54:50;4.20;99.90
45685;DHT22;46836;48.388;16.210;2023-02-28T09:57:37;4.20;99.90
45685;DHT22;46836;48.388;16.210;2023-02-28T10:02:56;4.30;99.90
45685;DHT22;46836;48.388;16.210;2023-02-28T10:05:31;4.30;99.90
45685;DHT22;46836;48.388;16.210;2023-02-28T10:08:02;4.30;99.90
45685;DHT22;46836;48.388;16.210;2023-02-28T10:16:14;4.60;99.90
45685;DHT22;46836;48.388;16.210;2023-02-28T10:19:02;4.70;99.90
45685;DHT22;46836;48.388;16.210;2023-02-28T10:24:33;4.80;99.90
45685;DHT22;46836;48.388;16.210;2023-02-28T10:27:13;4.90;99.90
45685;DHT22;46836;48.388;16.210;2023-02-28T10:29:44;5.00;99.90
45685;DHT22;46836;48.388;16.210;2023-02-28T10:32:15;5.00;99.90
45685;DHT22;46836;48.388;16.210;2023-02-28T10:34:43;5.20;99.90
45685;DHT22;46836;48.388;16.210;2023-02-28T10:37:11;5.40;99.90
45685;DHT22;46836;48.388;16.210;2023-02-28T10:39:44;5.70;99.90
45685;DHT22;46836;48.388;16.210;2023-02-28T10:42:29;5.90;99.90
45685;DHT22;46836;48.388;16.210;2023-02-28T10:45:12;6.00;99.90
45685;DHT22;46836;48.388;16.210;2023-02-28T10:47:53;6.10;99.90
45685;DHT22;46836;48.388;16.210;2023-02-28T10:50:52;6.20;99.90
45685;DHT22;46836;48.388;16.210;2023-02-28T11:07:00;6.00;99.90
45685;DHT22;46836;48.388;16.210;2023-02-28T11:09:33;6.10;99.90
45685;DHT22;46836;48.388;16.210;2023-02-28T11:12:06;6.40;99.90
45685;DHT22;46836;48.388;16.210;2023-02-28T11:14:46;6.50;99.90
45685;DHT22;46836;48.388;16.210;2023-02-28T11:17:23;6.70;99.90
45685;DHT22;46836;48.388;16.210;2023-02-28T11:19:53;6.80;99.90
45685;DHT22;46836;48.388;16.210;2023-02-28T11:22:26;6.60;99.90
45685;DHT22;46836;48.388;16.210;2023-02-28T11:24:59;6.40;99.90
45685;DHT22;46836;48.388;16.210;2023-02-28T11:29:59;6.20;99.90
45685;DHT22;46836;48.388;16.210;2023-02-28T11:32:29;6.30;99.90
45685;DHT22;46836;48.388;16.210;2023-02-28T11:37:38;6.80;99.90
45685;DHT22;46836;48.388;16.210;2023-02-28T11:40:21;6.90;99.90
45685;DHT22;46836;48.388;16.210;2023-02-28T11:43:13;7.10;99.90
45685;DHT22;46836;48.388;16.210;2023-02-28T11:51:38;7.30;99.90
45685;DHT22;46836;48.388;16.210;2023-02-28T11:55:14;7.40;99.90
45685;DHT22;46836;48.388;16.210;2023-02-28T12:06:36;7.70;99.90
45685;DHT22;46836;48.388;16.210;2023-02-28T12:17:03;7.70;99.90
45685;DHT22;46836;48.388;16.210;2023-02-28T12:22:29;7.70;99.90
45685;DHT22;46836;48.388;16.210;2023-02-28T12:27:38;7.60;99.90
45685;DHT22;46836;48.388;16.210;2023-02-28T12:30:20;7.60;99.90
45685;DHT22;46836;48.388;16.210;2023-02-28T12:35:38;7.40;99.90
45685;DHT22;46836;48.388;16.210;2023-02-28T12:38:19;7.30;99.90
45685;DHT22;46836;48.388;16.210;2023-02-28T12:40:54;7.20;99.90
45685;DHT22;46836;48.388;16.210;2023-02-28T12:43:30;6.90;99.90
45685;DHT22;46836;48.388;16.210;2023-02-28T12:46:08;7.00;99.90
45685;DHT22;46836;48.388;16.210;2023-02-28T12:51:49;6.80;99.90
45685;DHT22;46836;48.388;16.210;2023-02-28T12:54:40;6.70;99.90
45685;DHT22;46836;48.388;16.210;2023-02-28T13:00:16;6.90;99.90
45685;DHT22;46836;48.388;16.210;2023-02-28T13:11:32;7.90;99.90
45685;DHT22;46836;48.388;16.210;2023-02-28T13:14:03;8.00;99.90
45685;DHT22;46836;48.388;16.210;2023-02-28T13:16:56;8.20;99.90
45685;DHT22;46836;48.388;16.210;2023-02-28T13:19:27;8.10;99.90
45685;DHT22;46836;48.388;16.210;2023-02-28T13:21:56;7.90;99.90
45685;DHT22;46836;48.388;16.210;2023-02-28T13:24:45;7.80;99.90
45685;DHT22;46836;48.388;16.210;2023-02-28T13:29:43;7.70;99.90
45685;DHT22;46836;48.388;16.210;2023-02-28T13:32:33;7.70;99.90
45685;DHT22;46836;48.388;16.210;2023-02-28T13:40:37;7.50;99.90
45685;DHT22;46836;48.388;16.210;2023-02-28T13:43:08;7.40;99.90
45685;DHT22;46836;48.388;16.210;2023-02-28T13:45:35;7.20;99.90
45685;DHT22;46836;48.388;16.210;2023-02-28T13:48:26;7.20;99.90
45685;DHT22;46836;48.388;16.210;2023-02-28T13:50:55;7.10;99.90
45685;DHT22;46836;48.388;16.210;2023-02-28T13:53:53;7.30;99.90
45685;DHT22;46836;48.388;16.210;2023-02-28T13:56:37;7.30;99.90
45685;DHT22;46836;48.388;16.210;2023-02-28T13:59:36;7.30;99.90
45685;DHT22;46836;48.388;16.210;2023-02-28T14:05:01;7.80;99.90
45685;DHT22;46836;48.388;16.210;2023-02-28T14:07:32;7.90;99.90
45685;DHT22;46836;48.388;16.210;2023-02-28T14:10:05;7.80;99.90
45685;DHT22;46836;48.388;16.210;2023-02-28T14:12:55;7.70;99.90
45685;DHT22;46836;48.388;16.210;2023-02-28T14:17:59;7.80;99.90
45685;DHT22;46836;48.388;16.210;2023-02-28T14:20:31;7.90;99.90
45685;DHT22;46836;48.388;16.210;2023-02-28T14:28:56;8.00;99.90
45685;DHT22;46836;48.388;16.210;2023-02-28T14:31:36;8.10;99.90
45685;DHT22;46836;48.388;16.210;2023-02-28T14:37:15;8.10;99.90
45685;DHT22;46836;48.388;16.210;2023-02-28T14:39:44;8.00;99.90
45685;DHT22;46836;48.388;16.210;2023-02-28T14:42:39;7.90;99.90
45685;DHT22;46836;48.388;16.210;2023-02-28T14:45:20;7.90;99.90
45685;DHT22;46836;48.388;16.210;2023-02-28T14:47:50;7.90;99.90
45685;DHT22;46836;48.388;16.210;2023-02-28T14:50:23;7.90;99.90
45685;DHT22;46836;48.388;16.210;2023-02-28T14:52:54;8.00;99.90
45685;DHT22;46836;48.388;16.210;2023-02-28T14:55:28;8.10;99.90
45685;DHT22;46836;48.388;16.210;2023-02-28T14:58:02;8.20;99.90
45685;DHT22;46836;48.388;16.210;2023-02-28T15:00:34;8.20;99.90
45685;DHT22;46836;48.388;16.210;2023-02-28T15:06:01;8.30;99.90
45685;DHT22;46836;48.388;16.210;2023-02-28T15:08:30;8.20;99.90
45685;DHT22;46836;48.388;16.210;2023-02-28T15:11:05;8.10;99.90
45685;DHT22;46836;48.388;16.210;2023-02-28T15:13:40;8.00;99.90
45685;DHT22;46836;48.388;16.210;2023-02-28T15:16:19;8.10;99.90
45685;DHT22;46836;48.388;16.210;2023-02-28T15:18:54;8.10;99.90
45685;DHT22;46836;48.388;16.210;2023-02-28T15:21:39;8.00;99.90
45685;DHT22;46836;48.388;16.210;2023-02-28T15:24:19;7.80;99.90
45685;DHT22;46836;48.388;16.210;2023-02-28T15:26:54;7.70;99.90
45685;DHT22;46836;48.388;16.210;2023-02-28T15:29:25;7.60;99.90
45685;DHT22;46836;48.388;16.210;2023-02-28T15:32:02;7.50;99.90
45685;DHT22;46836;48.388;16.210;2023-02-28T15:34:39;7.40;99.90
45685;DHT22;46836;48.388;16.210;2023-02-28T15:37:29;7.30;99.90
45685;DHT22;46836;48.388;16.210;2023-02-28T15:40:04;7.20;99.90
45685;DHT22;46836;48.388;16.210;2023-02-28T15:42:32;7.20;99.90
45685;DHT22;46836;48.388;16.210;2023-02-28T15:44:59;7.20;99.90
45685;DHT22;46836;48.388;16.210;2023-02-28T15:47:29;7.20;99.90
45685;DHT22;46836;48.388;16.210;2023-02-28T15:50:09;7.10;99.90
45685;DHT22;46836;48.388;16.210;2023-02-28T15:52:43;7.00;99.90
45685;DHT22;46836;48.388;16.210;2023-02-28T15:55:24;7.00;99.90
45685;DHT22;46836;48.388;16.210;2023-02-28T15:57:56;7.00;99.90
45685;DHT22;46836;48.388;16.210;2023-02-28T16:00:30;7.00;99.90
45685;DHT22;46836;48.388;16.210;2023-02-28T16:03:00;7.00;99.90
45685;DHT22;46836;48.388;16.210;2023-02-28T16:05:29;6.90;99.90
45685;DHT22;46836;48.388;16.210;2023-02-28T16:08:12;6.90;99.90
45685;DHT22;46836;48.388;16.210;2023-02-28T16:10:40;6.80;99.90
45685;DHT22;46836;48.388;16.210;2023-02-28T16:13:09;6.80;99.90
45685;DHT22;46836;48.388;16.210;2023-02-28T16:15:44;6.80;99.90
45685;DHT22;46836;48.388;16.210;2023-02-28T16:18:12;6.70;99.90
45685;DHT22;46836;48.388;16.210;2023-02-28T16:20:39;6.70;99.90
45685;DHT22;46836;48.388;16.210;2023-02-28T16:23:07;6.60;99.90
45685;DHT22;46836;48.388;16.210;2023-02-28T16:25:43;6.50;99.90
45685;DHT22;46836;48.388;16.210;2023-02-28T16:28:19;6.40;99.90
45685;DHT22;46836;48.388;16.210;2023-02-28T16:30:48;6.40;99.90
45685;DHT22;46836;48.388;16.210;2023-02-28T16:33:17;6.30;99.90
45685;DHT22;46836;48.388;16.210;2023-02-28T16:35:45;6.20;99.90
45685;DHT22;46836;48.388;16.210;2023-02-28T16:38:12;6.20;99.90
45685;DHT22;46836;48.388;16.210;2023-02-28T16:40:40;6.20;99.90
45685;DHT22;46836;48.388;16.210;2023-02-28T16:43:16;6.10;99.90
45685;DHT22;46836;48.388;16.210;2023-02-28T16:45:44;6.00;99.90
45685;DHT22;46836;48.388;16.210;2023-02-28T16:48:14;6.00;99.90
45685;DHT22;46836;48.388;16.210;2023-02-28T16:50:43;5.90;99.90
45685;DHT22;46836;48.388;16.210;2023-02-28T16:53:12;5.80;99.90
45685;DHT22;46836;48.388;16.210;2023-02-28T16:55:40;5.70;99.90
45685;DHT22;46836;48.388;16.210;2023-02-28T16:58:14;5.60;99.90
45685;DHT22;46836;48.388;16.210;2023-02-28T17:00:42;5.50;99.90
45685;DHT22;46836;48.388;16.210;2023-02-28T17:03:23;5.40;99.90
45685;DHT22;46836;48.388;16.210;2023-02-28T17:06:00;5.30;99.90
45685;DHT22;46836;48.388;16.210;2023-02-28T17:08:27;5.20;99.90
45685;DHT22;46836;48.388;16.210;2023-02-28T17:10:56;5.10;99.90
45685;DHT22;46836;48.388;16.210;2023-02-28T17:13:24;5.10;99.90
45685;DHT22;46836;48.388;16.210;2023-02-28T17:15:52;5.00;99.90
45685;DHT22;46836;48.388;16.210;2023-02-28T17:18:22;5.00;99.90
45685;DHT22;46836;48.388;16.210;2023-02-28T17:20:49;4.90;99.90
45685;DHT22;46836;48.388;16.210;2023-02-28T17:23:17;4.80;99.90
45685;DHT22;46836;48.388;16.210;2023-02-28T17:25:44;4.80;99.90
45685;DHT22;46836;48.388;16.210;2023-02-28T17:28:24;4.70;99.90
45685;DHT22;46836;48.388;16.210;2023-02-28T17:30:52;4.70;99.90
45685;DHT22;46836;48.388;16.210;2023-02-28T17:33:22;4.70;99.90
45685;DHT22;46836;48.388;16.210;2023-02-28T17:35:49;4.60;99.90
45685;DHT22;46836;48.388;16.210;2023-02-28T17:38:19;4.60;99.90
45685;DHT22;46836;48.388;16.210;2023-02-28T17:40:47;4.50;99.90
45685;DHT22;46836;48.388;16.210;2023-02-28T17:43:16;4.50;99.90
45685;DHT22;46836;48.388;16.210;2023-02-28T17:45:43;4.40;99.90
45685;DHT22;46836;48.388;16.210;2023-02-28T17:48:12;4.40;99.90
45685;DHT22;46836;48.388;16.210;2023-02-28T17:50:40;4.30;99.90
45685;DHT22;46836;48.388;16.210;2023-02-28T17:53:09;4.30;99.90
45685;DHT22;46836;48.388;16.210;2023-02-28T17:55:36;4.20;99.90
45685;DHT22;46836;48.388;16.210;2023-02-28T17:58:04;4.20;99.90
45685;DHT22;46836;48.388;16.210;2023-02-28T18:00:31;4.10;99.90
45685;DHT22;46836;48.388;16.210;2023-02-28T18:03:00;4.10;99.90
45685;DHT22;46836;48.388;16.210;2023-02-28T18:05:28;4.20;99.90
45685;DHT22;46836;48.388;16.210;2023-02-28T18:07:56;4.10;99.90
45685;DHT22;46836;48.388;16.210;2023-02-28T18:10:25;4.10;99.90
45685;DHT22;46836;48.388;16.210;2023-02-28T18:12:54;4.00;99.90